Time;durP1;ratioP1;P1;durP2;ratioP2;P2;SDS_P1;SDS_P2;PMS_P1;PMS_P2;Temp;Humidity;BMP_temperature;BMP_pressure;BME280_temperature;BME280_humidity;BME280_pressure;Samples;Min_cycle;Max_cycle;Signal;HPM_P1;HPM_P2
2023/12/29 00:02:08;;;;;;;21.77;3.35;;;;;;;;;;4971776;28;20042;-56
2023/12/29 00:04:36;;;;;;;24.70;2.55;;;;;;;;;;4963073;28;20109;-55
2023/12/29 00:07:05;;;;;;;16.85;1.40;;;;;;;;;;4971203;28;20256;-54
2023/12/29 00:09:38;;;;;;;14.82;1.45;;;;;;;;;;4973899;28;20053;-51
2023/12/29 00:12:06;;;;;;;19.60;1.97;;;;;;;;;;4965346;28;20034;-55
2023/12/29 00:14:34;;;;;;;21.48;2.05;;;;;;;;;;4961329;28;20121;-56
2023/12/29 00:17:03;;;;;;;19.95;2.35;;;;;;;;;;4969634;28;20057;-53
2023/12/29 00:19:31;;;;;;;11.30;1.50;;;;;;;;;;4971071;28;20042;-57
2023/12/29 00:21:59;;;;;;;16.83;2.10;;;;;;;;;;4970406;28;20034;-54
2023/12/29 00:24:29;;;;;;;22.27;1.63;;;;;;;;;;4956807;28;20042;-55
2023/12/29 00:26:56;;;;;;;15.30;1.73;;;;;;;;;;4973503;28;20096;-54
2023/12/29 00:29:24;;;;;;;15.77;2.28;;;;;;;;;;4891460;28;20409;-55
2023/12/29 00:31:52;;;;;;;19.50;2.63;;;;;;;;;;4902715;28;20049;-54
2023/12/29 00:34:19;;;;;;;21.45;1.85;;;;;;;;;;4964691;28;20531;-52
2023/12/29 00:36:47;;;;;;;24.77;2.57;;;;;;;;;;4972013;28;20065;-51
2023/12/29 00:39:16;;;;;;;20.17;2.03;;;;;;;;;;4957139;28;20821;-54
2023/12/29 00:41:45;;;;;;;17.67;2.25;;;;;;;;;;4970491;28;20053;-49
2023/12/29 00:44:13;;;;;;;20.50;1.52;;;;;;;;;;4963939;28;20045;-51
2023/12/29 00:46:44;;;;;;;23.27;2.88;;;;;;;;;;4976781;28;20038;-54
2023/12/29 00:49:11;;;;;;;17.07;2.07;;;;;;;;;;4962517;28;20041;-53
2023/12/29 00:51:40;;;;;;;18.27;2.53;;;;;;;;;;4970544;28;20042;-56
2023/12/29 00:54:08;;;;;;;17.27;3.00;;;;;;;;;;4959296;28;20046;-53
2023/12/29 00:56:36;;;;;;;29.30;2.22;;;;;;;;;;4961958;28;20278;-54
2023/12/29 00:59:05;;;;;;;15.93;1.67;;;;;;;;;;4976166;28;20107;-52
2023/12/29 01:01:34;;;;;;;19.37;2.17;;;;;;;;;;4956653;28;20054;-55
2023/12/29 01:04:02;;;;;;;16.08;1.65;;;;;;;;;;4972852;28;20042;-53
2023/12/29 01:06:30;;;;;;;12.52;1.77;;;;;;;;;;4962281;28;20061;-52
2023/12/29 01:08:58;;;;;;;12.73;1.00;;;;;;;;;;4972766;28;20044;-52
2023/12/29 01:11:25;;;;;;;20.73;2.13;;;;;;;;;;4957585;28;20042;-54
2023/12/29 01:13:53;;;;;;;19.57;2.43;;;;;;;;;;4972851;28;20070;-55
2023/12/29 01:16:22;;;;;;;15.73;1.95;;;;;;;;;;4945798;28;20073;-51
2023/12/29 01:18:50;;;;;;;14.45;1.92;;;;;;;;;;4976558;28;20081;-53
2023/12/29 01:21:18;;;;;;;26.05;2.00;;;;;;;;;;4964941;28;20836;-50
2023/12/29 01:23:46;;;;;;;16.35;2.75;;;;;;;;;;4968195;28;20104;-51
2023/12/29 01:26:13;;;;;;;17.47;2.63;;;;;;;;;;4963438;28;20045;-54
2023/12/29 01:28:41;;;;;;;20.48;2.30;;;;;;;;;;4969335;28;20049;-55
2023/12/29 01:31:11;;;;;;;19.00;2.30;;;;;;;;;;4826670;28;20053;-57
2023/12/29 01:33:40;;;;;;;16.63;1.95;;;;;;;;;;4972283;28;20058;-51
2023/12/29 01:36:08;;;;;;;17.67;1.98;;;;;;;;;;4956906;28;20489;-53
2023/12/29 01:38:44;;;;;;;17.20;1.40;;;;;;;;;;4963306;28;20046;-53
2023/12/29 01:41:13;;;;;;;22.15;3.05;;;;;;;;;;4966637;28;20045;-56
2023/12/29 01:43:55;;;;;;;23.13;2.45;;;;;;;;;;4967439;28;20045;-56
2023/12/29 01:46:22;;;;;;;12.52;1.48;;;;;;;;;;4962936;28;20038;-52
2023/12/29 01:48:52;;;;;;;21.08;2.92;;;;;;;;;;4957505;28;20034;-52
2023/12/29 01:51:21;;;;;;;16.60;1.80;;;;;;;;;;4970170;28;20079;-53
2023/12/29 01:53:50;;;;;;;20.10;2.33;;;;;;;;;;4966003;28;20046;-52
2023/12/29 01:56:18;;;;;;;20.65;1.67;;;;;;;;;;4964199;28;20041;-52
2023/12/29 01:58:47;;;;;;;17.10;1.75;;;;;;;;;;4970892;28;20052;-54
2023/12/29 02:01:15;;;;;;;17.92;2.03;;;;;;;;;;4955905;28;20579;-54
2023/12/29 02:03:44;;;;;;;19.87;2.30;;;;;;;;;;4974780;28;20046;-52
2023/12/29 02:06:13;;;;;;;16.05;1.80;;;;;;;;;;4934868;28;20918;-53
2023/12/29 02:08:43;;;;;;;15.32;1.45;;;;;;;;;;4969533;28;20772;-51
2023/12/29 02:11:11;;;;;;;19.10;2.13;;;;;;;;;;4968510;28;20038;-50
2023/12/29 02:13:39;;;;;;;10.07;0.98;;;;;;;;;;4954555;28;20042;-52
2023/12/29 02:16:08;;;;;;;21.43;2.20;;;;;;;;;;4958049;28;20049;-52
2023/12/29 02:18:37;;;;;;;21.30;1.67;;;;;;;;;;4971846;28;20042;-56
2023/12/29 02:21:05;;;;;;;19.58;1.60;;;;;;;;;;4958909;28;20501;-51
2023/12/29 02:23:34;;;;;;;20.25;2.00;;;;;;;;;;4966556;28;20046;-54
2023/12/29 02:26:09;;;;;;;19.25;2.45;;;;;;;;;;4961217;28;20125;-56
2023/12/29 02:28:40;;;;;;;10.70;1.30;;;;;;;;;;4964927;28;20642;-54
2023/12/29 02:31:10;;;;;;;19.38;2.28;;;;;;;;;;4806328;28;20436;-52
2023/12/29 02:33:41;;;;;;;19.63;2.83;;;;;;;;;;4968518;28;20188;-51
2023/12/29 02:36:10;;;;;;;19.40;2.88;;;;;;;;;;4962442;28;20689;-53
2023/12/29 02:38:37;;;;;;;14.57;1.52;;;;;;;;;;4962212;28;20133;-53
2023/12/29 02:41:07;;;;;;;20.03;1.63;;;;;;;;;;4970895;28;20125;-54
2023/12/29 02:43:35;;;;;;;18.63;1.80;;;;;;;;;;4964285;28;20034;-56
2023/12/29 02:46:02;;;;;;;14.88;1.33;;;;;;;;;;4976860;28;20061;-51
2023/12/29 02:48:31;;;;;;;15.27;1.63;;;;;;;;;;4972336;28;20096;-54
2023/12/29 02:50:59;;;;;;;11.10;1.77;;;;;;;;;;4971536;28;20049;-54
2023/12/29 02:53:28;;;;;;;10.30;1.00;;;;;;;;;;4974334;28;20113;-54
2023/12/29 02:55:57;;;;;;;12.48;1.80;;;;;;;;;;4977217;28;20081;-55
2023/12/29 02:58:26;;;;;;;10.50;1.75;;;;;;;;;;4972491;28;20127;-49
2023/12/29 03:00:54;;;;;;;18.80;1.40;;;;;;;;;;4976910;28;20129;-55
2023/12/29 03:03:22;;;;;;;11.00;0.75;;;;;;;;;;4972977;28;20046;-52
2023/12/29 03:05:50;;;;;;;12.80;0.97;;;;;;;;;;4974996;28;20128;-54
2023/12/29 03:08:18;;;;;;;11.30;1.13;;;;;;;;;;4973161;28;20050;-53
2023/12/29 03:10:45;;;;;;;13.20;1.20;;;;;;;;;;4977353;28;20104;-53
2023/12/29 03:13:12;;;;;;;13.02;1.10;;;;;;;;;;4970003;28;20053;-52
2023/12/29 03:15:41;;;;;;;12.00;1.00;;;;;;;;;;4975487;28;20137;-53
2023/12/29 03:18:10;;;;;;;11.13;1.20;;;;;;;;;;4977585;28;20073;-53
2023/12/29 03:20:38;;;;;;;10.80;0.93;;;;;;;;;;4965049;28;20511;-49
2023/12/29 03:23:06;;;;;;;13.20;1.38;;;;;;;;;;4976397;28;20050;-52
2023/12/29 03:25:33;;;;;;;10.05;1.25;;;;;;;;;;4974469;28;20042;-53
2023/12/29 03:28:01;;;;;;;13.75;1.20;;;;;;;;;;4979695;28;20038;-53
2023/12/29 03:30:29;;;;;;;17.53;0.93;;;;;;;;;;4815832;28;20084;-52
2023/12/29 03:32:59;;;;;;;10.57;1.20;;;;;;;;;;4980823;28;20034;-54
2023/12/29 03:35:29;;;;;;;9.82;1.00;;;;;;;;;;4975851;28;20053;-52
2023/12/29 03:37:57;;;;;;;9.32;0.88;;;;;;;;;;4981700;28;20081;-54
2023/12/29 03:40:25;;;;;;;13.98;1.42;;;;;;;;;;4966181;28;20466;-55
2023/12/29 03:42:54;;;;;;;12.93;0.90;;;;;;;;;;4977400;28;20053;-56
2023/12/29 03:45:21;;;;;;;13.55;1.40;;;;;;;;;;4981703;28;20048;-55
2023/12/29 03:47:49;;;;;;;10.93;1.20;;;;;;;;;;4978028;28;20539;-51
2023/12/29 03:50:19;;;;;;;13.98;1.70;;;;;;;;;;4925687;28;20469;-53
2023/12/29 03:52:47;;;;;;;11.52;1.55;;;;;;;;;;4982460;28;20050;-54
2023/12/29 03:55:16;;;;;;;21.40;1.30;;;;;;;;;;4966603;28;20566;-54
2023/12/29 03:57:44;;;;;;;9.90;0.68;;;;;;;;;;4979918;28;20735;-55
2023/12/29 04:00:13;;;;;;;14.38;2.30;;;;;;;;;;4976786;28;20066;-54
2023/12/29 04:02:41;;;;;;;16.67;1.85;;;;;;;;;;4969902;28;20042;-53
2023/12/29 04:05:10;;;;;;;13.38;1.60;;;;;;;;;;4972235;28;20042;-55
2023/12/29 04:07:39;;;;;;;20.60;1.80;;;;;;;;;;4982383;28;20918;-54
2023/12/29 04:10:08;;;;;;;13.10;1.10;;;;;;;;;;4966060;28;20046;-52
2023/12/29 04:12:36;;;;;;;14.25;1.92;;;;;;;;;;4982160;28;20038;-53
2023/12/29 04:15:04;;;;;;;19.27;2.00;;;;;;;;;;4970305;28;20602;-50
2023/12/29 04:17:31;;;;;;;9.85;1.15;;;;;;;;;;4970792;28;20937;-55
2023/12/29 04:19:59;;;;;;;13.60;1.50;;;;;;;;;;4979744;28;20053;-53
2023/12/29 04:22:27;;;;;;;17.70;1.40;;;;;;;;;;4953098;28;20034;-51
2023/12/29 04:24:56;;;;;;;13.85;1.27;;;;;;;;;;4983193;28;20034;-52
2023/12/29 04:27:24;;;;;;;15.77;2.05;;;;;;;;;;4974800;28;20727;-49
2023/12/29 04:29:53;;;;;;;15.23;1.15;;;;;;;;;;4923324;28;20985;-52
2023/12/29 04:32:24;;;;;;;13.33;1.13;;;;;;;;;;4975981;28;20038;-51
2023/12/29 04:34:52;;;;;;;12.90;0.82;;;;;;;;;;4975017;28;22239;-52
2023/12/29 04:37:23;;;;;;;12.55;1.42;;;;;;;;;;4975470;28;20042;-51
2023/12/29 04:39:51;;;;;;;14.75;1.52;;;;;;;;;;4972939;28;20045;-53
2023/12/29 04:42:20;;;;;;;13.70;1.00;;;;;;;;;;4967890;28;20296;-51
2023/12/29 04:44:47;;;;;;;12.17;0.90;;;;;;;;;;4980975;28;20050;-54
2023/12/29 04:47:16;;;;;;;15.18;1.55;;;;;;;;;;4975752;28;20045;-51
2023/12/29 04:49:44;;;;;;;8.45;1.02;;;;;;;;;;4976005;28;20112;-53
2023/12/29 04:52:12;;;;;;;12.27;1.13;;;;;;;;;;4980966;28;20038;-52
2023/12/29 04:54:40;;;;;;;13.05;1.15;;;;;;;;;;4967569;28;20127;-52
2023/12/29 04:57:09;;;;;;;12.33;1.20;;;;;;;;;;4982125;28;20061;-52
2023/12/29 04:59:38;;;;;;;15.70;1.48;;;;;;;;;;4974796;28;20461;-54
2023/12/29 05:02:06;;;;;;;10.48;1.10;;;;;;;;;;4979741;28;20095;-52
2023/12/29 05:04:37;;;;;;;17.33;1.10;;;;;;;;;;4969298;28;20050;-54
2023/12/29 05:07:06;;;;;;;13.15;1.27;;;;;;;;;;4981632;28;20061;-55
2023/12/29 05:09:34;;;;;;;8.47;1.13;;;;;;;;;;4967896;28;20045;-54
2023/12/29 05:12:02;;;;;;;11.85;0.98;;;;;;;;;;4986176;28;20756;-49
2023/12/29 05:14:30;;;;;;;8.05;0.95;;;;;;;;;;4978394;28;20444;-51
2023/12/29 05:16:59;;;;;;;8.00;0.88;;;;;;;;;;4973724;28;20039;-55
2023/12/29 05:19:26;;;;;;;9.75;1.63;;;;;;;;;;4969476;28;20042;-52
2023/12/29 05:21:54;;;;;;;11.80;0.80;;;;;;;;;;4980124;28;20042;-50
2023/12/29 05:24:22;;;;;;;8.65;0.60;;;;;;;;;;4967126;28;20121;-49
2023/12/29 05:26:51;;;;;;;10.00;0.80;;;;;;;;;;4973286;28;20042;-55
2023/12/29 05:29:19;;;;;;;10.80;0.90;;;;;;;;;;4891782;28;22423;-52
2023/12/29 05:31:48;;;;;;;9.40;1.02;;;;;;;;;;4893992;28;20054;-53
2023/12/29 05:34:17;;;;;;;13.67;1.03;;;;;;;;;;4982346;28;20374;-50
2023/12/29 05:36:45;;;;;;;10.00;0.90;;;;;;;;;;4969471;28;20062;-54
2023/12/29 05:39:17;;;;;;;9.57;0.88;;;;;;;;;;4975397;28;20058;-56
2023/12/29 05:41:44;;;;;;;14.35;0.88;;;;;;;;;;4980926;28;20045;-52
2023/12/29 05:44:12;;;;;;;13.40;1.00;;;;;;;;;;4968308;28;20069;-51
2023/12/29 05:46:40;;;;;;;9.73;0.63;;;;;;;;;;4975803;28;20053;-54
2023/12/29 05:49:07;;;;;;;11.80;1.25;;;;;;;;;;4955040;28;20068;-51
2023/12/29 05:51:36;;;;;;;10.05;0.77;;;;;;;;;;4959502;28;20166;-53
2023/12/29 05:54:05;;;;;;;9.38;0.70;;;;;;;;;;4968400;28;20041;-50
2023/12/29 05:56:33;;;;;;;10.15;1.20;;;;;;;;;;4962419;28;20504;-54
2023/12/29 05:59:01;;;;;;;11.37;0.80;;;;;;;;;;4972387;28;20708;-55
2023/12/29 06:01:28;;;;;;;12.02;1.08;;;;;;;;;;4958372;28;20050;-53
2023/12/29 06:03:57;;;;;;;13.45;1.65;;;;;;;;;;4967825;28;20137;-53
2023/12/29 06:06:25;;;;;;;11.90;0.93;;;;;;;;;;4965279;28;20053;-52
2023/12/29 06:08:55;;;;;;;8.95;0.70;;;;;;;;;;4965063;28;20125;-48
2023/12/29 06:11:22;;;;;;;8.10;1.07;;;;;;;;;;4977632;28;20048;-52
2023/12/29 06:13:50;;;;;;;10.75;0.50;;;;;;;;;;4970693;28;20056;-51
2023/12/29 06:16:18;;;;;;;10.80;1.10;;;;;;;;;;4970556;28;20045;-53
2023/12/29 06:18:46;;;;;;;7.75;1.27;;;;;;;;;;4965837;28;20050;-51
2023/12/29 06:21:15;;;;;;;6.45;0.60;;;;;;;;;;4971100;28;20610;-55
2023/12/29 06:23:43;;;;;;;8.63;1.00;;;;;;;;;;4958565;28;20042;-50
2023/12/29 06:26:19;;;;;;;10.45;0.57;;;;;;;;;;4970698;28;20410;-53
2023/12/29 06:28:47;;;;;;;10.32;0.70;;;;;;;;;;4958623;28;21189;-48
2023/12/29 06:31:14;;;;;;;5.70;0.50;;;;;;;;;;4806108;28;20041;-54
2023/12/29 06:33:42;;;;;;;12.10;0.82;;;;;;;;;;4965045;28;21213;-50
2023/12/29 06:36:11;;;;;;;8.00;1.13;;;;;;;;;;4967392;28;20046;-51
2023/12/29 06:38:39;;;;;;;8.35;0.80;;;;;;;;;;4967491;28;20061;-54
2023/12/29 06:41:09;;;;;;;6.70;0.80;;;;;;;;;;4964391;28;20548;-52
2023/12/29 06:43:38;;;;;;;5.80;0.73;;;;;;;;;;4961778;28;20934;-52
2023/12/29 06:46:08;;;;;;;7.55;0.60;;;;;;;;;;4961932;28;20496;-54
2023/12/29 06:48:37;;;;;;;13.23;1.33;;;;;;;;;;4960150;28;20381;-51
2023/12/29 06:51:05;;;;;;;8.95;1.00;;;;;;;;;;4966390;28;20052;-53
2023/12/29 06:53:33;;;;;;;9.25;0.73;;;;;;;;;;4958155;28;20082;-48
2023/12/29 06:56:00;;;;;;;14.52;0.68;;;;;;;;;;4971624;28;20487;-51
2023/12/29 06:58:28;;;;;;;13.13;0.90;;;;;;;;;;4960286;28;20767;-47
2023/12/29 07:00:57;;;;;;;7.07;0.90;;;;;;;;;;4956497;28;20512;-55
2023/12/29 07:03:25;;;;;;;9.00;0.43;;;;;;;;;;4972283;28;20080;-55
2023/12/29 07:05:53;;;;;;;9.00;0.68;;;;;;;;;;4959056;28;20038;-55
2023/12/29 07:08:21;;;;;;;9.63;1.02;;;;;;;;;;4973578;28;20043;-53
2023/12/29 07:11:10;;;;;;;10.05;1.30;;;;;;;;;;4969895;28;20528;-52
2023/12/29 07:13:38;;;;;;;8.43;0.57;;;;;;;;;;4957631;28;20050;-51
2023/12/29 07:16:07;;;;;;;5.95;0.57;;;;;;;;;;4957754;28;20042;-55
2023/12/29 07:18:36;;;;;;;8.38;0.90;;;;;;;;;;4980397;28;20042;-56
2023/12/29 07:21:05;;;;;;;13.15;0.90;;;;;;;;;;4958613;28;20157;-54
2023/12/29 07:23:32;;;;;;;10.95;0.63;;;;;;;;;;4969553;28;20038;-55
2023/12/29 07:26:00;;;;;;;9.27;0.60;;;;;;;;;;4965289;28;20819;-54
2023/12/29 07:28:28;;;;;;;6.72;1.15;;;;;;;;;;4966429;28;20566;-53
2023/12/29 07:30:56;;;;;;;8.25;1.02;;;;;;;;;;4816023;28;20081;-56
2023/12/29 07:33:27;;;;;;;8.38;0.77;;;;;;;;;;4968032;28;20042;-57
2023/12/29 07:35:55;;;;;;;6.75;0.65;;;;;;;;;;4976765;28;20048;-56
2023/12/29 07:38:22;;;;;;;8.93;0.70;;;;;;;;;;4972275;28;20048;-54
2023/12/29 07:40:49;;;;;;;7.65;0.88;;;;;;;;;;4967444;28;20051;-53
2023/12/29 07:43:17;;;;;;;8.93;0.90;;;;;;;;;;4971944;28;20046;-55
2023/12/29 07:45:45;;;;;;;12.23;0.90;;;;;;;;;;4950994;28;20042;-52
2023/12/29 07:48:12;;;;;;;12.60;0.70;;;;;;;;;;4975625;28;20054;-52
2023/12/29 07:50:42;;;;;;;11.60;0.87;;;;;;;;;;4962910;28;20356;-54
2023/12/29 07:53:10;;;;;;;9.85;0.70;;;;;;;;;;4963338;28;20041;-57
2023/12/29 07:55:38;;;;;;;13.05;0.60;;;;;;;;;;4959023;28;20042;-53
2023/12/29 07:58:06;;;;;;;10.63;0.60;;;;;;;;;;4971184;28;20552;-53
2023/12/29 08:00:34;;;;;;;13.32;1.20;;;;;;;;;;4966871;28;20050;-53
2023/12/29 08:03:02;;;;;;;9.40;0.60;;;;;;;;;;4960848;28;20049;-53
2023/12/29 08:05:31;;;;;;;10.75;1.27;;;;;;;;;;4965488;28;20038;-55
2023/12/29 08:08:00;;;;;;;6.53;0.70;;;;;;;;;;4968232;28;20039;-54
2023/12/29 08:10:29;;;;;;;8.32;0.50;;;;;;;;;;4966418;28;20045;-52
2023/12/29 08:12:56;;;;;;;8.45;0.70;;;;;;;;;;4970365;28;20116;-53
2023/12/29 08:15:24;;;;;;;5.83;0.50;;;;;;;;;;4980194;28;20065;-53
2023/12/29 08:17:52;;;;;;;8.38;0.65;;;;;;;;;;4964413;28;20046;-51
2023/12/29 08:20:21;;;;;;;11.43;0.65;;;;;;;;;;4981532;28;20157;-53
2023/12/29 08:22:48;;;;;;;7.97;0.50;;;;;;;;;;4958413;28;20046;-53
2023/12/29 08:25:19;;;;;;;9.75;0.60;;;;;;;;;;4968391;28;20835;-53
2023/12/29 08:27:46;;;;;;;4.10;0.37;;;;;;;;;;4973442;28;20148;-52
2023/12/29 08:30:14;;;;;;;10.40;0.73;;;;;;;;;;4799304;28;20038;-56
2023/12/29 08:32:42;;;;;;;8.30;0.60;;;;;;;;;;4973802;28;20057;-56
2023/12/29 08:35:10;;;;;;;8.45;0.50;;;;;;;;;;4968520;28;20037;-53
2023/12/29 08:37:38;;;;;;;6.43;0.63;;;;;;;;;;4978355;28;20492;-52
2023/12/29 08:40:07;;;;;;;8.13;0.50;;;;;;;;;;4981033;28;20080;-53
2023/12/29 08:42:36;;;;;;;5.05;0.50;;;;;;;;;;4968704;28;20540;-52
2023/12/29 08:45:06;;;;;;;6.65;1.02;;;;;;;;;;4982464;28;20069;-52
2023/12/29 08:47:36;;;;;;;5.65;0.40;;;;;;;;;;4978515;28;20504;-54
2023/12/29 08:50:04;;;;;;;9.25;0.40;;;;;;;;;;4966011;28;20133;-54
2023/12/29 08:52:33;;;;;;;6.43;0.63;;;;;;;;;;4974639;28;20038;-52
2023/12/29 08:55:00;;;;;;;5.68;0.75;;;;;;;;;;4960853;28;20061;-54
2023/12/29 08:57:30;;;;;;;5.85;1.00;;;;;;;;;;4977909;28;20678;-52
2023/12/29 08:59:59;;;;;;;6.85;0.70;;;;;;;;;;4975117;28;20038;-55
2023/12/29 09:02:26;;;;;;;5.95;0.40;;;;;;;;;;4973009;28;20092;-56
2023/12/29 09:04:54;;;;;;;11.40;0.70;;;;;;;;;;4977219;28;20052;-54
2023/12/29 09:07:22;;;;;;;5.15;0.30;;;;;;;;;;4967438;28;20042;-54
2023/12/29 09:09:51;;;;;;;6.57;0.88;;;;;;;;;;4975014;28;20523;-53
2023/12/29 09:12:18;;;;;;;6.60;0.30;;;;;;;;;;4964741;28;21216;-52
2023/12/29 09:14:46;;;;;;;8.18;0.40;;;;;;;;;;4969957;28;20038;-53
2023/12/29 09:17:16;;;;;;;9.70;1.40;;;;;;;;;;4969154;28;20038;-54
2023/12/29 09:19:43;;;;;;;9.10;0.80;;;;;;;;;;4972605;28;20053;-54
2023/12/29 09:22:15;;;;;;;8.63;0.57;;;;;;;;;;4964520;28;20474;-54
2023/12/29 09:24:43;;;;;;;7.15;0.40;;;;;;;;;;4965627;28;21153;-54
2023/12/29 09:27:11;;;;;;;10.43;0.60;;;;;;;;;;4968300;28;20159;-53
2023/12/29 09:29:39;;;;;;;5.80;0.70;;;;;;;;;;4896133;28;20096;-53
2023/12/29 09:32:07;;;;;;;5.88;0.73;;;;;;;;;;4896052;28;20625;-54
2023/12/29 09:34:36;;;;;;;8.98;0.50;;;;;;;;;;4978733;28;20050;-52
2023/12/29 09:37:06;;;;;;;5.32;0.60;;;;;;;;;;4970783;28;20125;-56
2023/12/29 09:39:34;;;;;;;8.85;0.50;;;;;;;;;;4974161;28;20072;-53
2023/12/29 09:42:02;;;;;;;8.03;0.40;;;;;;;;;;4981495;28;20068;-53
2023/12/29 09:44:32;;;;;;;4.82;0.32;;;;;;;;;;4975973;28;20042;-54
2023/12/29 09:47:02;;;;;;;5.03;0.43;;;;;;;;;;4966906;28;21261;-49
2023/12/29 09:49:31;;;;;;;8.52;0.75;;;;;;;;;;4970248;28;20045;-54
2023/12/29 09:52:01;;;;;;;6.35;0.52;;;;;;;;;;4969741;28;20489;-53
2023/12/29 09:54:30;;;;;;;5.30;0.80;;;;;;;;;;4972563;28;20074;-55
2023/12/29 09:56:57;;;;;;;5.45;0.40;;;;;;;;;;4964577;28;20078;-54
2023/12/29 09:59:26;;;;;;;10.23;0.43;;;;;;;;;;4961078;28;21089;-54
2023/12/29 10:01:54;;;;;;;9.90;0.50;;;;;;;;;;4969887;28;20057;-53
2023/12/29 10:04:22;;;;;;;7.32;0.77;;;;;;;;;;4961245;28;21329;-55
2023/12/29 10:06:50;;;;;;;6.43;0.70;;;;;;;;;;4966389;28;20086;-52
2023/12/29 10:09:21;;;;;;;8.75;0.70;;;;;;;;;;4958642;28;20044;-51
2023/12/29 10:11:49;;;;;;;5.18;0.45;;;;;;;;;;4964712;28;20394;-52
2023/12/29 10:14:23;;;;;;;8.60;1.20;;;;;;;;;;4957823;28;20587;-53
2023/12/29 10:16:54;;;;;;;9.38;0.75;;;;;;;;;;4955802;28;20042;-55
2023/12/29 10:19:25;;;;;;;10.40;0.50;;;;;;;;;;4958266;28;20066;-52
2023/12/29 10:21:58;;;;;;;10.18;1.15;;;;;;;;;;4971899;28;20042;-53
2023/12/29 10:24:28;;;;;;;7.80;0.68;;;;;;;;;;4954656;28;20104;-50
2023/12/29 10:26:57;;;;;;;13.05;0.95;;;;;;;;;;4964371;28;20034;-52
2023/12/29 10:29:25;;;;;;;8.57;0.60;;;;;;;;;;4891317;28;20662;-53
2023/12/29 10:31:53;;;;;;;7.70;0.43;;;;;;;;;;4883890;28;20041;-51
2023/12/29 10:34:28;;;;;;;6.93;0.50;;;;;;;;;;4964536;28;20429;-55
2023/12/29 10:36:57;;;;;;;7.80;0.50;;;;;;;;;;4971193;28;20921;-53
2023/12/29 10:39:24;;;;;;;6.40;0.45;;;;;;;;;;4968406;28;20415;-50
2023/12/29 10:42:03;;;;;;;7.10;0.70;;;;;;;;;;4974609;28;20517;-51
2023/12/29 10:44:31;;;;;;;7.10;0.73;;;;;;;;;;4976715;28;20050;-53
2023/12/29 10:46:58;;;;;;;8.77;0.32;;;;;;;;;;4965296;28;20050;-53
2023/12/29 10:49:26;;;;;;;4.50;0.50;;;;;;;;;;4971349;28;20045;-50
2023/12/29 10:51:55;;;;;;;5.03;0.70;;;;;;;;;;4966473;28;20046;-49
2023/12/29 10:54:23;;;;;;;4.57;1.30;;;;;;;;;;4969811;28;20056;-50
2023/12/29 10:57:03;;;;;;;4.73;0.37;;;;;;;;;;4960146;28;20078;-49
2023/12/29 10:59:31;;;;;;;5.40;0.50;;;;;;;;;;4969425;28;20069;-53
2023/12/29 11:02:03;;;;;;;6.57;0.70;;;;;;;;;;4968499;28;20448;-53
2023/12/29 11:04:34;;;;;;;4.13;0.30;;;;;;;;;;4963200;28;20595;-50
2023/12/29 11:07:02;;;;;;;3.58;0.50;;;;;;;;;;4971414;28;20080;-50
2023/12/29 11:09:30;;;;;;;5.10;0.30;;;;;;;;;;4962179;28;20053;-51
2023/12/29 11:12:00;;;;;;;4.78;0.30;;;;;;;;;;4977816;28;20061;-52
2023/12/29 11:14:29;;;;;;;2.92;0.30;;;;;;;;;;4966519;28;20053;-56
2023/12/29 11:16:57;;;;;;;6.72;0.30;;;;;;;;;;4976640;28;20409;-57
2023/12/29 11:19:25;;;;;;;6.10;0.57;;;;;;;;;;4959821;28;20056;-54
2023/12/29 11:21:54;;;;;;;4.47;0.40;;;;;;;;;;4975638;28;20413;-55
2023/12/29 11:24:22;;;;;;;3.10;0.32;;;;;;;;;;4957444;28;20053;-58
2023/12/29 11:27:03;;;;;;;2.88;0.30;;;;;;;;;;4957542;28;20038;-57
2023/12/29 11:29:32;;;;;;;4.10;0.30;;;;;;;;;;4893326;28;20528;-56
2023/12/29 11:32:02;;;;;;;5.30;0.40;;;;;;;;;;4886983;28;20042;-57
2023/12/29 11:34:34;;;;;;;2.90;0.40;;;;;;;;;;4968270;28;20598;-58
2023/12/29 11:37:08;;;;;;;4.40;0.40;;;;;;;;;;4964792;28;20168;-56
2023/12/29 11:39:39;;;;;;;5.13;0.38;;;;;;;;;;4969171;28;20531;-58
2023/12/29 11:42:15;;;;;;;5.07;0.20;;;;;;;;;;4963300;28;20042;-57
2023/12/29 11:44:45;;;;;;;2.83;0.20;;;;;;;;;;4973295;28;20519;-57
2023/12/29 11:47:28;;;;;;;1.93;0.17;;;;;;;;;;4973903;28;20674;-54
2023/12/29 11:50:02;;;;;;;5.53;0.30;;;;;;;;;;4972006;28;20820;-58
2023/12/29 11:52:36;;;;;;;3.83;0.40;;;;;;;;;;4978814;28;20149;-57
2023/12/29 11:55:10;;;;;;;4.38;0.40;;;;;;;;;;4965318;28;21541;-55
2023/12/29 11:57:39;;;;;;;6.50;0.43;;;;;;;;;;4969532;28;20761;-57
2023/12/29 12:00:09;;;;;;;6.07;0.40;;;;;;;;;;4976813;28;20513;-58
2023/12/29 12:02:37;;;;;;;5.10;0.50;;;;;;;;;;4965570;28;20955;-57
2023/12/29 12:05:07;;;;;;;3.47;0.43;;;;;;;;;;4971646;28;20077;-57
2023/12/29 12:07:53;;;;;;;2.85;0.25;;;;;;;;;;4967718;28;20115;-54
2023/12/29 12:10:31;;;;;;;3.30;0.30;;;;;;;;;;4967042;28;20070;-58
2023/12/29 12:13:00;;;;;;;4.13;0.40;;;;;;;;;;4976435;28;20480;-55
2023/12/29 12:15:34;;;;;;;2.58;0.20;;;;;;;;;;4976653;28;20056;-56
2023/12/29 12:18:04;;;;;;;3.90;0.63;;;;;;;;;;4966036;28;20038;-55
2023/12/29 12:20:32;;;;;;;3.05;0.20;;;;;;;;;;4972492;28;20050;-57
2023/12/29 12:23:01;;;;;;;6.18;0.40;;;;;;;;;;4976420;28;20712;-56
2023/12/29 12:25:30;;;;;;;3.23;0.30;;;;;;;;;;4962783;28;20077;-56
2023/12/29 12:27:58;;;;;;;4.72;0.40;;;;;;;;;;4970014;28;20037;-56
2023/12/29 12:30:26;;;;;;;4.57;0.35;;;;;;;;;;4831535;28;20077;-58
2023/12/29 12:32:59;;;;;;;4.63;0.25;;;;;;;;;;4980390;28;20155;-54
2023/12/29 12:35:28;;;;;;;6.03;0.40;;;;;;;;;;4966857;28;20169;-55
2023/12/29 12:38:07;;;;;;;3.57;0.60;;;;;;;;;;4975465;28;20493;-58
2023/12/29 12:40:35;;;;;;;2.85;0.30;;;;;;;;;;4972035;28;20049;-57
2023/12/29 12:43:03;;;;;;;3.65;0.40;;;;;;;;;;4969160;28;20440;-56
2023/12/29 12:45:34;;;;;;;2.90;0.25;;;;;;;;;;4966262;28;20512;-57
2023/12/29 12:48:10;;;;;;;1.40;0.20;;;;;;;;;;4975186;28;20038;-56
2023/12/29 12:50:38;;;;;;;5.00;0.47;;;;;;;;;;4972771;28;20571;-55
2023/12/29 12:53:09;;;;;;;2.90;0.50;;;;;;;;;;4968993;28;20772;-57
2023/12/29 12:55:38;;;;;;;3.78;0.30;;;;;;;;;;4969732;28;20068;-57
2023/12/29 12:58:06;;;;;;;3.88;0.30;;;;;;;;;;4971495;28;20065;-56
2023/12/29 13:00:34;;;;;;;3.53;0.30;;;;;;;;;;4966393;28;20050;-54
2023/12/29 13:03:04;;;;;;;3.23;0.30;;;;;;;;;;4972483;28;20104;-54
2023/12/29 13:05:32;;;;;;;5.63;0.40;;;;;;;;;;4966090;28;20282;-58
2023/12/29 13:08:01;;;;;;;2.78;0.50;;;;;;;;;;4979675;28;20046;-55
2023/12/29 13:10:30;;;;;;;2.58;0.30;;;;;;;;;;4970002;28;20056;-57
2023/12/29 13:12:58;;;;;;;3.67;0.50;;;;;;;;;;4976748;28;20042;-58
2023/12/29 13:15:26;;;;;;;3.57;0.40;;;;;;;;;;4969389;28;20046;-55
2023/12/29 13:17:54;;;;;;;2.22;0.28;;;;;;;;;;4956307;28;20057;-54
2023/12/29 13:20:23;;;;;;;3.38;0.30;;;;;;;;;;4969457;28;20054;-56
2023/12/29 13:22:53;;;;;;;6.05;0.47;;;;;;;;;;4971035;28;20569;-55
2023/12/29 13:25:21;;;;;;;4.28;0.43;;;;;;;;;;4961355;28;20493;-58
2023/12/29 13:27:50;;;;;;;3.53;0.43;;;;;;;;;;4969850;28;20069;-58
2023/12/29 13:30:19;;;;;;;6.70;0.45;;;;;;;;;;4800019;28;20839;-58
2023/12/29 13:32:48;;;;;;;6.53;0.82;;;;;;;;;;4964596;28;20049;-56
2023/12/29 13:35:20;;;;;;;4.57;0.47;;;;;;;;;;4972084;28;20771;-58
2023/12/29 13:37:52;;;;;;;4.88;0.45;;;;;;;;;;4973887;28;20104;-55
2023/12/29 13:40:23;;;;;;;7.83;0.80;;;;;;;;;;4968553;28;20126;-57
2023/12/29 13:42:54;;;;;;;4.28;0.47;;;;;;;;;;4972874;28;20069;-56
2023/12/29 13:45:22;;;;;;;5.63;0.70;;;;;;;;;;4968060;28;20042;-54
2023/12/29 13:47:50;;;;;;;3.17;0.40;;;;;;;;;;4970893;28;20049;-58
2023/12/29 13:50:18;;;;;;;7.65;0.68;;;;;;;;;;4987283;28;20034;-58
2023/12/29 13:53:06;;;;;;;5.27;0.30;;;;;;;;;;4972528;28;20042;-58
2023/12/29 13:55:36;;;;;;;5.35;0.30;;;;;;;;;;4973480;28;20045;-58
2023/12/29 13:58:09;;;;;;;5.43;0.63;;;;;;;;;;4969082;28;20062;-58
2023/12/29 14:00:38;;;;;;;6.53;0.57;;;;;;;;;;4964496;28;20045;-58
2023/12/29 14:03:07;;;;;;;4.68;0.40;;;;;;;;;;4973798;28;20408;-58
2023/12/29 14:05:37;;;;;;;7.27;0.47;;;;;;;;;;4963855;28;20048;-58
2023/12/29 14:08:09;;;;;;;11.82;0.70;;;;;;;;;;4969027;28;20046;-54
2023/12/29 14:10:38;;;;;;;6.00;0.63;;;;;;;;;;4960779;28;20404;-57
2023/12/29 14:13:06;;;;;;;7.50;0.50;;;;;;;;;;4970972;28;20042;-57
2023/12/29 14:15:40;;;;;;;5.35;0.45;;;;;;;;;;4971351;28;20137;-57
2023/12/29 14:18:16;;;;;;;3.43;0.37;;;;;;;;;;4987726;28;21294;-55
2023/12/29 14:20:44;;;;;;;8.55;0.60;;;;;;;;;;4945181;28;20050;-56
2023/12/29 14:23:13;;;;;;;7.75;0.60;;;;;;;;;;4970337;28;20483;-56
2023/12/29 14:25:41;;;;;;;9.05;1.02;;;;;;;;;;4958056;28;21050;-54
2023/12/29 14:28:15;;;;;;;4.10;0.32;;;;;;;;;;4972837;28;20042;-57
2023/12/29 14:30:43;;;;;;;9.83;0.57;;;;;;;;;;4800327;28;20139;-56
2023/12/29 14:33:12;;;;;;;6.43;0.63;;;;;;;;;;4976494;28;20037;-58
2023/12/29 14:35:39;;;;;;;7.32;1.25;;;;;;;;;;4970247;28;20688;-55
2023/12/29 14:38:07;;;;;;;8.40;0.52;;;;;;;;;;4968947;28;20087;-58
2023/12/29 14:40:35;;;;;;;4.55;0.25;;;;;;;;;;4964641;28;20050;-56
2023/12/29 14:43:04;;;;;;;5.93;0.37;;;;;;;;;;4952847;28;20480;-59
2023/12/29 14:45:32;;;;;;;14.18;0.70;;;;;;;;;;4960446;28;20786;-58
2023/12/29 14:48:00;;;;;;;7.90;0.50;;;;;;;;;;4968939;28;20034;-58
2023/12/29 14:50:29;;;;;;;6.53;0.50;;;;;;;;;;4959718;28;20045;-58